Time;durP1;ratioP1;P1;durP2;ratioP2;P2;SDS_P1;SDS_P2;PMS_P1;PMS_P2;Temp;Humidity;BMP_temperature;BMP_pressure;BME280_temperature;BME280_humidity;BME280_pressure;Samples;Min_cycle;Max_cycle;Signal;HPM_P1;HPM_P2
2021/06/18 00:02:14;;;;;;;;;;;;;;;;;;5052149;28;19913;-77
2021/06/18 00:04:39;;;;;;;;;;;;;;;;;;5051887;28;19912;-77
2021/06/18 00:07:04;;;;;;;;;;;;;;;;;;5053285;28;19916;-77
2021/06/18 00:09:29;;;;;;;;;;;;;;;;;;5052087;28;19921;-77
2021/06/18 00:11:54;;;;;;;;;;;;;;;;;;5053223;28;19913;-77
2021/06/18 00:14:20;;;;;;;;;;;;;;;;;;5051971;28;19912;-77
2021/06/18 00:16:45;;;;;;;;;;;;;;;;;;5052981;28;19959;-77
2021/06/18 00:19:10;;;;;;;;;;;;;;;;;;5035149;28;19919;-77
2021/06/18 00:21:35;;;;;;;;;;;;;;;;;;5051976;28;19956;-77
2021/06/18 00:24:00;;;;;;;;;;;;;;;;;;5051840;28;19913;-77
2021/06/18 00:26:25;;;;;;;;;;;;;;;;;;5053085;28;20337;-77
2021/06/18 00:28:51;;;;;;;;;;;;;;;;;;5052053;28;19913;-77
2021/06/18 00:31:16;;;;;;;;;;;;;;;;;;5052155;28;19917;-77
2021/06/18 00:33:41;;;;;;;;;;;;;;;;;;5035659;28;19913;-77
2021/06/18 00:36:07;;;;;;;;;;;;;;;;;;5053102;28;19913;-77
2021/06/18 00:38:32;;;;;;;;;;;;;;;;;;5051599;28;19966;-77
2021/06/18 00:40:57;;;;;;;;;;;;;;;;;;5035262;28;19956;-77
2021/06/18 00:43:22;;;;;;;;;;;;;;;;;;5053934;28;19913;-77
2021/06/18 00:45:47;;;;;;;;;;;;;;;;;;5038973;28;20291;-77
2021/06/18 00:48:13;;;;;;;;;;;;;;;;;;5056422;28;19913;-77
2021/06/18 00:50:38;;;;;;;;;;;;;;;;;;5038503;28;19966;-77
2021/06/18 00:53:03;;;;;;;;;;;;;;;;;;5055165;28;20382;-77
2021/06/18 00:55:28;;;;;;;;;;;;;;;;;;5055284;28;19913;-77
2021/06/18 00:57:54;;;;;;;;;;;;;;;;;;5055047;28;20260;-77
2021/06/18 01:00:19;;;;;;;;;;;;;;;;;;5054914;28;20294;-77
2021/06/18 01:02:45;;;;;;;;;;;;;;;;;;5054794;28;19913;-77
2021/06/18 01:05:11;;;;;;;;;;;;;;;;;;5055013;28;19913;-77
2021/06/18 01:07:55;;;;;;;;;;;;;;;;;;5038103;28;19957;-77
2021/06/18 01:10:33;;;;;;;;;;;;;;;;;;5056028;28;19940;-77
2021/06/18 01:13:22;;;;;;;;;;;;;;;;;;5038052;28;19936;-77
2021/06/18 01:15:49;;;;;;;;;;;;;;;;;;5049095;28;19913;-77
2021/06/18 01:18:15;;;;;;;;;;;;;;;;;;5054828;28;19912;-77
2021/06/18 01:21:00;;;;;;;;;;;;;;;;;;5037934;28;19917;-77
2021/06/18 01:23:28;;;;;;;;;;;;;;;;;;5054447;28;19920;-77
2021/06/18 01:26:02;;;;;;;;;;;;;;;;;;5055517;28;19913;-77
2021/06/18 01:28:27;;;;;;;;;;;;;;;;;;5055612;28;19956;-77
2021/06/18 01:30:52;;;;;;;;;;;;;;;;;;5055746;28;20354;-77
2021/06/18 01:33:18;;;;;;;;;;;;;;;;;;5054339;28;19920;-77
2021/06/18 01:35:48;;;;;;;;;;;;;;;;;;5054387;28;19920;-77
2021/06/18 01:38:13;;;;;;;;;;;;;;;;;;5037461;28;20000;-77
2021/06/18 01:40:38;;;;;;;;;;;;;;;;;;5037628;28;20028;-77
2021/06/18 01:43:04;;;;;;;;;;;;;;;;;;5037467;28;19913;-77
2021/06/18 01:45:29;;;;;;;;;;;;;;;;;;5053971;28;20062;-76
2021/06/18 01:47:55;;;;;;;;;;;;;;;;;;5053798;28;20007;-77
2021/06/18 01:50:21;;;;;;;;;;;;;;;;;;5053960;28;19918;-76
2021/06/18 01:52:49;;;;;;;;;;;;;;;;;;5054067;28;19923;-76
2021/06/18 01:55:14;;;;;;;;;;;;;;;;;;5053678;28;19995;-76
2021/06/18 01:57:39;;;;;;;;;;;;;;;;;;5037058;28;20406;-76
2021/06/18 02:00:05;;;;;;;;;;;;;;;;;;5036936;28;19917;-76
2021/06/18 02:02:30;;;;;;;;;;;;;;;;;;5053631;28;19920;-76
2021/06/18 02:04:55;;;;;;;;;;;;;;;;;;5037016;28;20345;-77
2021/06/18 02:07:24;;;;;;;;;;;;;;;;;;5054021;28;19966;-77
2021/06/18 02:09:49;;;;;;;;;;;;;;;;;;5054645;28;19976;-77
2021/06/18 02:12:14;;;;;;;;;;;;;;;;;;5053737;28;19920;-77
2021/06/18 02:14:40;;;;;;;;;;;;;;;;;;5053870;28;19920;-76
2021/06/18 02:17:05;;;;;;;;;;;;;;;;;;5053271;28;19913;-77
2021/06/18 02:19:30;;;;;;;;;;;;;;;;;;5053288;28;20012;-77
2021/06/18 02:21:56;;;;;;;;;;;;;;;;;;5054476;28;19916;-76
2021/06/18 02:24:22;;;;;;;;;;;;;;;;;;5053349;28;19917;-77
2021/06/18 02:26:47;;;;;;;;;;;;;;;;;;5053389;28;19966;-77
2021/06/18 02:29:12;;;;;;;;;;;;;;;;;;5036598;28;19913;-77
2021/06/18 02:31:38;;;;;;;;;;;;;;;;;;5036346;28;19912;-77
2021/06/18 02:34:03;;;;;;;;;;;;;;;;;;5054336;28;19913;-77
2021/06/18 02:36:28;;;;;;;;;;;;;;;;;;5036426;28;19998;-76
2021/06/18 02:38:53;;;;;;;;;;;;;;;;;;5036369;28;19912;-77
2021/06/18 02:41:18;;;;;;;;;;;;;;;;;;5052926;28;19917;-77
2021/06/18 02:43:43;;;;;;;;;;;;;;;;;;5052967;28;19920;-77
2021/06/18 02:46:09;;;;;;;;;;;;;;;;;;5054090;28;19959;-76
2021/06/18 02:48:39;;;;;;;;;;;;;;;;;;5052936;28;20356;-76
2021/06/18 02:51:25;;;;;;;;;;;;;;;;;;5052669;28;19974;-76
2021/06/18 02:53:50;;;;;;;;;;;;;;;;;;5052153;28;19916;-75
2021/06/18 02:56:19;;;;;;;;;;;;;;;;;;5053956;28;19913;-76
2021/06/18 02:58:54;;;;;;;;;;;;;;;;;;5052707;28;19913;-76
2021/06/18 03:01:20;;;;;;;;;;;;;;;;;;5036010;28;19921;-76
2021/06/18 03:03:45;;;;;;;;;;;;;;;;;;5035922;28;19936;-76
2021/06/18 03:06:11;;;;;;;;;;;;;;;;;;5051981;28;19924;-75
2021/06/18 03:08:37;;;;;;;;;;;;;;;;;;5035759;28;19916;-75
2021/06/18 03:11:03;;;;;;;;;;;;;;;;;;5066019;22;19928;-81
2021/06/18 03:13:30;;;;;;;;;;;;;;;;;;5055421;28;20375;-82
2021/06/18 03:15:56;;;;;;;;;;;;;;;;;;5039099;28;19920;-82
2021/06/18 03:18:22;;;;;;;;;;;;;;;;;;5055946;28;20308;-81
2021/06/18 03:20:49;;;;;;;;;;;;;;;;;;5038659;28;19916;-82
2021/06/18 03:23:15;;;;;;;;;;;;;;;;;;5039302;28;20283;-82
2021/06/18 03:25:40;;;;;;;;;;;;;;;;;;5038590;28;19917;-82
2021/06/18 03:28:05;;;;;;;;;;;;;;;;;;5038175;28;19920;-81
2021/06/18 03:30:31;;;;;;;;;;;;;;;;;;5038747;28;19917;-82
2021/06/18 03:32:56;;;;;;;;;;;;;;;;;;5056152;28;19983;-82
2021/06/18 03:35:22;;;;;;;;;;;;;;;;;;5038978;28;20394;-82
2021/06/18 03:37:47;;;;;;;;;;;;;;;;;;5055249;28;19917;-82
2021/06/18 03:40:12;;;;;;;;;;;;;;;;;;5038846;28;19924;-82
2021/06/18 03:42:37;;;;;;;;;;;;;;;;;;5038085;28;19917;-81
2021/06/18 03:45:03;;;;;;;;;;;;;;;;;;5054725;28;19913;-82
2021/06/18 03:47:28;;;;;;;;;;;;;;;;;;5037579;28;19917;-82
2021/06/18 03:49:54;;;;;;;;;;;;;;;;;;5054813;28;19919;-82
2021/06/18 03:52:19;;;;;;;;;;;;;;;;;;5055109;28;20363;-82
2021/06/18 03:54:45;;;;;;;;;;;;;;;;;;5037921;28;19962;-82
2021/06/18 03:57:10;;;;;;;;;;;;;;;;;;5055129;28;19912;-79
2021/06/18 03:59:36;;;;;;;;;;;;;;;;;;5036866;28;19970;-79
2021/06/18 04:02:01;;;;;;;;;;;;;;;;;;5033597;28;20377;-79
2021/06/18 04:04:26;;;;;;;;;;;;;;;;;;5051448;28;19999;-79
2021/06/18 04:06:51;;;;;;;;;;;;;;;;;;5051240;28;20315;-79
2021/06/18 04:09:17;;;;;;;;;;;;;;;;;;5050052;28;20273;-79
2021/06/18 04:11:44;;;;;;;;;;;;;;;;;;5050364;28;19920;-78
2021/06/18 04:14:11;;;;;;;;;;;;;;;;;;5034675;28;19916;-79
2021/06/18 04:16:36;;;;;;;;;;;;;;;;;;5050371;28;19970;-79
2021/06/18 04:19:02;;;;;;;;;;;;;;;;;;5037268;28;19920;-79
2021/06/18 04:21:27;;;;;;;;;;;;;;;;;;5055589;28;19927;-79
2021/06/18 04:23:52;;;;;;;;;;;;;;;;;;5054874;28;19924;-79
2021/06/18 04:26:23;;;;;;;;;;;;;;;;;;5037974;28;20391;-79
2021/06/18 04:28:48;;;;;;;;;;;;;;;;;;5055379;28;20056;-80
2021/06/18 04:31:13;;;;;;;;;;;;;;;;;;5055647;28;19952;-79
2021/06/18 04:33:38;;;;;;;;;;;;;;;;;;5057472;28;20011;-79
2021/06/18 04:36:04;;;;;;;;;;;;;;;;;;5040874;28;19912;-78
2021/06/18 04:38:29;;;;;;;;;;;;;;;;;;5040998;28;19919;-79
2021/06/18 04:40:54;;;;;;;;;;;;;;;;;;5041748;28;19917;-79
2021/06/18 04:43:19;;;;;;;;;;;;;;;;;;5041356;28;19920;-79
2021/06/18 04:45:45;;;;;;;;;;;;;;;;;;5041678;28;20390;-79
2021/06/18 04:48:10;;;;;;;;;;;;;;;;;;5041618;28;20383;-78
2021/06/18 04:50:35;;;;;;;;;;;;;;;;;;5055688;28;19958;-79
2021/06/18 04:53:01;;;;;;;;;;;;;;;;;;5040037;28;20276;-77
2021/06/18 04:55:26;;;;;;;;;;;;;;;;;;5056003;28;19920;-78
2021/06/18 04:57:51;;;;;;;;;;;;;;;;;;5055149;28;19920;-78
2021/06/18 05:00:17;;;;;;;;;;;;;;;;;;5038430;28;19917;-78
2021/06/18 05:02:42;;;;;;;;;;;;;;;;;;5038691;28;19912;-78
2021/06/18 05:05:08;;;;;;;;;;;;;;;;;;5055385;28;19920;-78
2021/06/18 05:07:33;;;;;;;;;;;;;;;;;;5055154;28;19920;-78
2021/06/18 05:09:58;;;;;;;;;;;;;;;;;;5037228;28;20272;-78
2021/06/18 05:12:23;;;;;;;;;;;;;;;;;;5037367;28;19974;-78
2021/06/18 05:14:48;;;;;;;;;;;;;;;;;;5037513;28;19913;-78
2021/06/18 05:17:14;;;;;;;;;;;;;;;;;;5053972;28;19963;-78
2021/06/18 05:19:39;;;;;;;;;;;;;;;;;;5037744;28;19928;-78
2021/06/18 05:22:04;;;;;;;;;;;;;;;;;;5037619;28;19919;-78
2021/06/18 05:24:30;;;;;;;;;;;;;;;;;;5038091;28;19913;-78
2021/06/18 05:26:55;;;;;;;;;;;;;;;;;;5038617;28;19935;-78
2021/06/18 05:29:20;;;;;;;;;;;;;;;;;;5055905;28;19913;-78
2021/06/18 05:31:46;;;;;;;;;;;;;;;;;;5055041;28;19913;-78
2021/06/18 05:34:11;;;;;;;;;;;;;;;;;;5038198;28;19966;-78
2021/06/18 05:36:36;;;;;;;;;;;;;;;;;;5054668;28;20363;-78
2021/06/18 05:39:01;;;;;;;;;;;;;;;;;;5055044;28;19917;-78
2021/06/18 05:41:27;;;;;;;;;;;;;;;;;;5054688;28;19959;-78
2021/06/18 05:43:52;;;;;;;;;;;;;;;;;;5054499;28;19913;-78
2021/06/18 05:46:17;;;;;;;;;;;;;;;;;;5037822;28;20191;-78
2021/06/18 05:48:43;;;;;;;;;;;;;;;;;;5037814;28;19936;-78
2021/06/18 05:51:08;;;;;;;;;;;;;;;;;;5054425;28;20356;-78
2021/06/18 05:53:33;;;;;;;;;;;;;;;;;;5054736;28;20268;-78
2021/06/18 05:55:59;;;;;;;;;;;;;;;;;;5037526;28;20368;-78
2021/06/18 05:58:25;;;;;;;;;;;;;;;;;;5037681;28;19916;-78
2021/06/18 06:00:50;;;;;;;;;;;;;;;;;;5053928;28;20394;-78
2021/06/18 06:03:15;;;;;;;;;;;;;;;;;;5037414;28;19999;-78
2021/06/18 06:05:41;;;;;;;;;;;;;;;;;;5037156;28;19917;-78
2021/06/18 06:08:10;;;;;;;;;;;;;;;;;;5037074;28;19913;-78
2021/06/18 06:10:35;;;;;;;;;;;;;;;;;;5053743;28;20375;-78
2021/06/18 06:13:00;;;;;;;;;;;;;;;;;;5037115;28;19916;-78
2021/06/18 06:15:25;;;;;;;;;;;;;;;;;;5053593;28;20054;-78
2021/06/18 06:17:50;;;;;;;;;;;;;;;;;;5053640;28;19916;-78
2021/06/18 06:20:16;;;;;;;;;;;;;;;;;;5053441;28;20370;-78
2021/06/18 06:22:41;;;;;;;;;;;;;;;;;;5053512;28;19916;-78
2021/06/18 06:25:06;;;;;;;;;;;;;;;;;;5036874;28;19920;-78
2021/06/18 06:27:32;;;;;;;;;;;;;;;;;;5036610;28;19912;-78
2021/06/18 06:29:57;;;;;;;;;;;;;;;;;;5053248;28;20272;-78
2021/06/18 06:32:22;;;;;;;;;;;;;;;;;;5053264;28;20337;-78
2021/06/18 06:34:47;;;;;;;;;;;;;;;;;;5054918;28;20023;-78
2021/06/18 06:37:12;;;;;;;;;;;;;;;;;;5053191;28;19913;-78
2021/06/18 06:39:38;;;;;;;;;;;;;;;;;;5036619;28;19913;-78
2021/06/18 06:42:04;;;;;;;;;;;;;;;;;;5035771;28;20376;-78
2021/06/18 06:44:30;;;;;;;;;;;;;;;;;;5036526;28;20458;-78
2021/06/18 06:46:55;;;;;;;;;;;;;;;;;;5036440;28;20003;-78
2021/06/18 06:49:20;;;;;;;;;;;;;;;;;;5053065;28;20368;-77
2021/06/18 06:51:45;;;;;;;;;;;;;;;;;;5053087;28;19951;-78
2021/06/18 06:54:10;;;;;;;;;;;;;;;;;;5054382;28;19917;-78
2021/06/18 06:56:36;;;;;;;;;;;;;;;;;;5055000;28;19919;-78
2021/06/18 06:59:01;;;;;;;;;;;;;;;;;;5036298;28;19923;-78
2021/06/18 07:01:26;;;;;;;;;;;;;;;;;;5052684;28;19917;-77
2021/06/18 07:03:51;;;;;;;;;;;;;;;;;;5052807;28;19912;-78
2021/06/18 07:06:17;;;;;;;;;;;;;;;;;;5036293;28;19913;-78
2021/06/18 07:08:42;;;;;;;;;;;;;;;;;;5052944;28;19999;-78
2021/06/18 07:11:07;;;;;;;;;;;;;;;;;;5052772;28;19923;-78
2021/06/18 07:13:32;;;;;;;;;;;;;;;;;;5052715;28;19913;-78
2021/06/18 07:15:57;;;;;;;;;;;;;;;;;;5052680;28;19921;-78
2021/06/18 07:18:23;;;;;;;;;;;;;;;;;;5054379;28;19916;-80
2021/06/18 07:20:48;;;;;;;;;;;;;;;;;;5039769;28;19921;-80
2021/06/18 07:23:13;;;;;;;;;;;;;;;;;;5039597;28;19913;-80
2021/06/18 07:25:39;;;;;;;;;;;;;;;;;;5056294;28;19982;-80
2021/06/18 07:28:04;;;;;;;;;;;;;;;;;;5055930;28;19913;-80
2021/06/18 07:30:29;;;;;;;;;;;;;;;;;;5039182;28;19935;-80
2021/06/18 07:32:55;;;;;;;;;;;;;;;;;;5036838;28;19912;-78
2021/06/18 07:35:20;;;;;;;;;;;;;;;;;;5052341;28;19971;-78
2021/06/18 07:37:45;;;;;;;;;;;;;;;;;;5052317;28;19912;-78
2021/06/18 07:40:11;;;;;;;;;;;;;;;;;;5035546;28;19917;-78
2021/06/18 07:42:37;;;;;;;;;;;;;;;;;;5052492;28;20388;-78
2021/06/18 07:45:02;;;;;;;;;;;;;;;;;;5052244;28;19959;-78
2021/06/18 07:47:27;;;;;;;;;;;;;;;;;;5053608;28;20367;-78
2021/06/18 07:49:53;;;;;;;;;;;;;;;;;;5053531;28;19913;-78
2021/06/18 07:52:18;;;;;;;;;;;;;;;;;;5039660;28;20433;-80
2021/06/18 07:54:43;;;;;;;;;;;;;;;;;;5060135;28;19913;-80
2021/06/18 07:57:09;;;;;;;;;;;;;;;;;;5059760;28;19913;-80
2021/06/18 07:59:34;;;;;;;;;;;;;;;;;;5059761;28;19913;-80
2021/06/18 08:01:59;;;;;;;;;;;;;;;;;;5060134;28;19920;-80
2021/06/18 08:04:24;;;;;;;;;;;;;;;;;;5043249;28;19913;-80
2021/06/18 08:06:50;;;;;;;;;;;;;;;;;;5043257;28;19956;-80
2021/06/18 08:09:15;;;;;;;;;;;;;;;;;;5059735;28;19919;-80
2021/06/18 08:11:40;;;;;;;;;;;;;;;;;;5061328;28;19939;-80
2021/06/18 08:14:05;;;;;;;;;;;;;;;;;;5043029;28;19913;-80
2021/06/18 08:16:30;;;;;;;;;;;;;;;;;;5059430;28;19917;-80
2021/06/18 08:18:56;;;;;;;;;;;;;;;;;;5056562;28;19956;-78
2021/06/18 08:21:21;;;;;;;;;;;;;;;;;;5055749;28;20055;-78
2021/06/18 08:23:46;;;;;;;;;;;;;;;;;;5055567;28;19912;-78
2021/06/18 08:26:11;;;;;;;;;;;;;;;;;;5055759;28;19917;-78
2021/06/18 08:28:36;;;;;;;;;;;;;;;;;;5039182;28;19909;-78
2021/06/18 08:31:04;;;;;;;;;;;;;;;;;;5056939;28;19935;-78
2021/06/18 08:33:30;;;;;;;;;;;;;;;;;;5055569;28;19913;-78
2021/06/18 08:35:55;;;;;;;;;;;;;;;;;;5056914;28;19913;-78
2021/06/18 08:38:21;;;;;;;;;;;;;;;;;;5055404;28;20407;-78
2021/06/18 08:40:46;;;;;;;;;;;;;;;;;;5038831;28;19963;-78
2021/06/18 08:43:11;;;;;;;;;;;;;;;;;;5055458;28;20403;-78
2021/06/18 08:45:37;;;;;;;;;;;;;;;;;;5038575;28;19920;-78
2021/06/18 08:48:02;;;;;;;;;;;;;;;;;;5038642;28;20383;-78
2021/06/18 08:50:27;;;;;;;;;;;;;;;;;;5039117;28;19917;-78
2021/06/18 08:52:54;;;;;;;;;;;;;;;;;;5055547;28;20290;-78
2021/06/18 08:55:20;;;;;;;;;;;;;;;;;;5038441;28;19913;-78
2021/06/18 08:57:49;;;;;;;;;;;;;;;;;;5055168;28;19913;-78
2021/06/18 09:00:15;;;;;;;;;;;;;;;;;;5055089;28;19924;-78
2021/06/18 09:02:40;;;;;;;;;;;;;;;;;;5038414;28;19912;-78
2021/06/18 09:05:14;;;;;;;;;;;;;;;;;;5055499;28;20303;-78
2021/06/18 09:07:56;;;;;;;;;;;;;;;;;;5055050;28;19999;-78
2021/06/18 09:10:25;;;;;;;;;;;;;;;;;;5055021;28;19942;-78
2021/06/18 09:13:09;;;;;;;;;;;;;;;;;;5069651;22;19933;-75
2021/06/18 09:15:35;;;;;;;;;;;;;;;;;;5054646;28;19917;-75
2021/06/18 09:18:19;;;;;;;;;;;;;;;;;;5055824;28;20043;-75
2021/06/18 09:20:44;;;;;;;;;;;;;;;;;;5055664;28;19958;-75
2021/06/18 09:23:19;;;;;;;;;;;;;;;;;;5054375;28;19971;-75
2021/06/18 09:25:44;;;;;;;;;;;;;;;;;;5054363;28;19913;-75
2021/06/18 09:28:09;;;;;;;;;;;;;;;;;;5054497;28;19916;-75
2021/06/18 09:30:35;;;;;;;;;;;;;;;;;;5037592;28;19935;-75
2021/06/18 09:33:05;;;;;;;;;;;;;;;;;;5055478;28;20276;-75
2021/06/18 09:35:31;;;;;;;;;;;;;;;;;;5055418;28;19917;-75
2021/06/18 09:37:57;;;;;;;;;;;;;;;;;;5054556;28;20315;-75
2021/06/18 09:40:23;;;;;;;;;;;;;;;;;;5055258;28;19924;-75
2021/06/18 09:43:00;;;;;;;;;;;;;;;;;;5037720;28;20334;-75
2021/06/18 09:45:29;;;;;;;;;;;;;;;;;;5055513;28;19963;-75
2021/06/18 09:48:05;;;;;;;;;;;;;;;;;;5055091;28;19999;-75
2021/06/18 09:50:31;;;;;;;;;;;;;;;;;;5054143;28;19916;-75
2021/06/18 09:53:15;;;;;;;;;;;;;;;;;;5053888;28;20288;-75
2021/06/18 09:55:41;;;;;;;;;;;;;;;;;;5053778;28;19923;-75
2021/06/18 09:58:07;;;;;;;;;;;;;;;;;;5053709;28;20341;-75
2021/06/18 10:00:32;;;;;;;;;;;;;;;;;;5053869;28;19924;-75
2021/06/18 10:02:57;;;;;;;;;;;;;;;;;;5055106;28;20294;-75
2021/06/18 10:05:23;;;;;;;;;;;;;;;;;;5053721;28;19913;-75
2021/06/18 10:07:50;;;;;;;;;;;;;;;;;;5053476;28;19923;-75
2021/06/18 10:10:25;;;;;;;;;;;;;;;;;;5037020;28;20284;-75
2021/06/18 10:12:51;;;;;;;;;;;;;;;;;;5053766;28;19920;-75
2021/06/18 10:15:17;;;;;;;;;;;;;;;;;;5053966;28;19935;-75
2021/06/18 10:17:43;;;;;;;;;;;;;;;;;;5053372;28;19958;-75
2021/06/18 10:20:19;;;;;;;;;;;;;;;;;;5053342;28;19916;-75
2021/06/18 10:23:01;;;;;;;;;;;;;;;;;;5053376;28;19913;-75
2021/06/18 10:25:42;;;;;;;;;;;;;;;;;;5053469;28;20398;-75
2021/06/18 10:28:08;;;;;;;;;;;;;;;;;;5053207;28;19917;-75
2021/06/18 10:30:43;;;;;;;;;;;;;;;;;;5036620;28;19936;-75
2021/06/18 10:33:38;;;;;;;;;;;;;;;;;;5053174;28;19913;-75
2021/06/18 10:36:08;;;;;;;;;;;;;;;;;;5053814;28;19991;-75
2021/06/18 10:38:34;;;;;;;;;;;;;;;;;;5054195;28;20386;-75
2021/06/18 10:41:03;;;;;;;;;;;;;;;;;;5053043;28;19917;-75
2021/06/18 10:43:36;;;;;;;;;;;;;;;;;;5053060;28;19913;-75
2021/06/18 10:46:06;;;;;;;;;;;;;;;;;;5052859;28;19912;-75
2021/06/18 10:48:49;;;;;;;;;;;;;;;;;;5054264;28;19923;-75
2021/06/18 10:51:34;;;;;;;;;;;;;;;;;;5052696;28;19948;-75
2021/06/18 10:54:04;;;;;;;;;;;;;;;;;;5052938;28;20375;-75
2021/06/18 10:56:44;;;;;;;;;;;;;;;;;;5052813;28;19913;-75
2021/06/18 10:59:10;;;;;;;;;;;;;;;;;;5054049;28;19936;-75
2021/06/18 11:01:35;;;;;;;;;;;;;;;;;;5035865;28;20367;-75
2021/06/18 11:04:00;;;;;;;;;;;;;;;;;;5053804;28;20287;-75
2021/06/18 11:06:44;;;;;;;;;;;;;;;;;;5052731;28;19924;-75
2021/06/18 11:09:09;;;;;;;;;;;;;;;;;;5053710;28;19978;-75
2021/06/18 11:11:35;;;;;;;;;;;;;;;;;;5053687;28;20521;-75
2021/06/18 11:14:04;;;;;;;;;;;;;;;;;;5052566;28;20367;-75
2021/06/18 11:16:47;;;;;;;;;;;;;;;;;;5052393;28;19922;-75
2021/06/18 11:19:19;;;;;;;;;;;;;;;;;;5052425;28;19912;-75
2021/06/18 11:21:44;;;;;;;;;;;;;;;;;;5052325;28;19963;-75
2021/06/18 11:24:09;;;;;;;;;;;;;;;;;;5052495;28;20441;-75
2021/06/18 11:26:34;;;;;;;;;;;;;;;;;;5035414;28;20019;-75
2021/06/18 11:29:00;;;;;;;;;;;;;;;;;;5051984;28;19923;-75
2021/06/18 11:31:41;;;;;;;;;;;;;;;;;;5053423;28;20252;-75
2021/06/18 11:34:06;;;;;;;;;;;;;;;;;;5035718;28;19944;-75
2021/06/18 11:36:33;;;;;;;;;;;;;;;;;;5052144;28;20018;-75
2021/06/18 11:39:07;;;;;;;;;;;;;;;;;;5053484;28;19958;-75
2021/06/18 11:41:33;;;;;;;;;;;;;;;;;;5053259;28;19921;-75
2021/06/18 11:44:02;;;;;;;;;;;;;;;;;;5052225;28;19912;-75
2021/06/18 11:46:29;;;;;;;;;;;;;;;;;;5052179;28;20403;-75
2021/06/18 11:48:55;;;;;;;;;;;;;;;;;;5052079;28;19912;-75
2021/06/18 11:51:24;;;;;;;;;;;;;;;;;;5052062;28;19913;-75
2021/06/18 11:53:49;;;;;;;;;;;;;;;;;;5052034;28;19919;-75
2021/06/18 11:56:15;;;;;;;;;;;;;;;;;;5052060;28;19916;-75
2021/06/18 11:58:41;;;;;;;;;;;;;;;;;;5052271;28;19924;-75
2021/06/18 12:01:12;;;;;;;;;;;;;;;;;;5051930;28;19916;-75
2021/06/18 12:03:37;;;;;;;;;;;;;;;;;;5053284;28;19913;-75
2021/06/18 12:06:15;;;;;;;;;;;;;;;;;;5052561;28;20280;-75
2021/06/18 12:08:56;;;;;;;;;;;;;;;;;;5052012;28;19940;-75
2021/06/18 12:11:21;;;;;;;;;;;;;;;;;;5052118;28;20306;-75
2021/06/18 12:13:52;;;;;;;;;;;;;;;;;;5051787;28;20007;-75
2021/06/18 12:16:19;;;;;;;;;;;;;;;;;;5051852;28;19913;-75
2021/06/18 12:18:44;;;;;;;;;;;;;;;;;;5051802;28;19962;-75
2021/06/18 12:21:09;;;;;;;;;;;;;;;;;;5051823;28;19917;-75
2021/06/18 12:23:34;;;;;;;;;;;;;;;;;;5051747;28;19921;-75
2021/06/18 12:26:00;;;;;;;;;;;;;;;;;;5051653;28;20329;-75
2021/06/18 12:28:25;;;;;;;;;;;;;;;;;;5051693;28;19913;-75
2021/06/18 12:30:50;;;;;;;;;;;;;;;;;;5051681;28;19959;-75
2021/06/18 12:33:16;;;;;;;;;;;;;;;;;;5051812;28;19913;-75
2021/06/18 12:35:41;;;;;;;;;;;;;;;;;;5051659;28;19917;-74
2021/06/18 12:38:07;;;;;;;;;;;;;;;;;;5051520;28;19912;-75
2021/06/18 12:40:33;;;;;;;;;;;;;;;;;;5055265;28;19920;-75
2021/06/18 12:43:09;;;;;;;;;;;;;;;;;;5038720;28;19917;-75
2021/06/18 12:45:40;;;;;;;;;;;;;;;;;;5055206;28;19920;-75
2021/06/18 12:48:08;;;;;;;;;;;;;;;;;;5055110;28;20279;-75
2021/06/18 12:50:43;;;;;;;;;;;;;;;;;;5056292;28;19936;-75
2021/06/18 12:53:09;;;;;;;;;;;;;;;;;;5056192;28;19917;-75
2021/06/18 12:55:35;;;;;;;;;;;;;;;;;;5055219;28;19913;-75
2021/06/18 12:58:03;;;;;;;;;;;;;;;;;;5038171;28;19913;-75
2021/06/18 13:00:28;;;;;;;;;;;;;;;;;;5056003;28;19920;-75
2021/06/18 13:02:55;;;;;;;;;;;;;;;;;;5038209;28;19913;-75
2021/06/18 13:05:20;;;;;;;;;;;;;;;;;;5038590;28;20387;-75
2021/06/18 13:07:46;;;;;;;;;;;;;;;;;;5054773;28;19936;-75
2021/06/18 13:10:12;;;;;;;;;;;;;;;;;;5054712;28;19923;-75
2021/06/18 13:12:37;;;;;;;;;;;;;;;;;;5054850;28;20272;-75
2021/06/18 13:15:03;;;;;;;;;;;;;;;;;;5054645;28;19912;-75
2021/06/18 13:17:28;;;;;;;;;;;;;;;;;;5054682;28;19967;-75
2021/06/18 13:19:53;;;;;;;;;;;;;;;;;;5054494;28;19937;-75
2021/06/18 13:22:21;;;;;;;;;;;;;;;;;;5054525;28;20364;-75
2021/06/18 13:24:58;;;;;;;;;;;;;;;;;;5055653;28;19917;-75
2021/06/18 13:27:23;;;;;;;;;;;;;;;;;;5055652;28;20003;-75
2021/06/18 13:29:56;;;;;;;;;;;;;;;;;;5037719;28;19962;-75
2021/06/18 13:32:22;;;;;;;;;;;;;;;;;;5053386;28;19912;-75
2021/06/18 13:34:54;;;;;;;;;;;;;;;;;;5045933;28;20448;-75
2021/06/18 13:37:29;;;;;;;;;;;;;;;;;;5074403;28;19913;-75
2021/06/18 13:40:12;;;;;;;;;;;;;;;;;;5074200;28;20405;-75
2021/06/18 13:42:37;;;;;;;;;;;;;;;;;;5074251;28;20482;-75
2021/06/18 13:45:03;;;;;;;;;;;;;;;;;;5057416;28;19977;-76
2021/06/18 13:47:28;;;;;;;;;;;;;;;;;;5057400;28;20375;-77
2021/06/18 13:50:04;;;;;;;;;;;;;;;;;;5070105;28;19970;-76
2021/06/18 13:52:29;;;;;;;;;;;;;;;;;;5070320;28;19919;-75
2021/06/18 13:54:54;;;;;;;;;;;;;;;;;;5071606;28;19916;-75
2021/06/18 13:57:19;;;;;;;;;;;;;;;;;;5070710;28;19916;-77
2021/06/18 13:59:44;;;;;;;;;;;;;;;;;;5054047;28;19963;-77
2021/06/18 14:02:10;;;;;;;;;;;;;;;;;;5071096;28;20026;-77
2021/06/18 14:04:35;;;;;;;;;;;;;;;;;;5053899;28;19919;-77
2021/06/18 14:07:00;;;;;;;;;;;;;;;;;;5055373;28;19920;-78
2021/06/18 14:09:25;;;;;;;;;;;;;;;;;;5054266;28;19912;-77
2021/06/18 14:11:50;;;;;;;;;;;;;;;;;;5072250;28;19971;-78
2021/06/18 14:14:16;;;;;;;;;;;;;;;;;;5053072;28;19935;-77
2021/06/18 14:16:42;;;;;;;;;;;;;;;;;;5070016;28;19912;-77
2021/06/18 14:19:08;;;;;;;;;;;;;;;;;;5070327;28;19927;-77
2021/06/18 14:21:33;;;;;;;;;;;;;;;;;;5070381;28;19995;-77
2021/06/18 14:23:59;;;;;;;;;;;;;;;;;;5053524;28;20011;-76
2021/06/18 14:26:24;;;;;;;;;;;;;;;;;;5069176;28;19920;-76
2021/06/18 14:28:50;;;;;;;;;;;;;;;;;;5069705;28;20276;-76
2021/06/18 14:31:15;;;;;;;;;;;;;;;;;;5069595;28;19923;-76
2021/06/18 14:33:40;;;;;;;;;;;;;;;;;;5070680;28;19999;-79
2021/06/18 14:36:05;;;;;;;;;;;;;;;;;;5071938;28;20398;-77
2021/06/18 14:38:30;;;;;;;;;;;;;;;;;;5070590;28;19920;-77
2021/06/18 14:40:56;;;;;;;;;;;;;;;;;;5054154;28;19947;-77
2021/06/18 14:43:21;;;;;;;;;;;;;;;;;;5054171;28;19951;-77
2021/06/18 14:45:46;;;;;;;;;;;;;;;;;;5071191;28;20398;-77
2021/06/18 14:48:11;;;;;;;;;;;;;;;;;;5071203;28;20367;-78
2021/06/18 14:50:36;;;;;;;;;;;;;;;;;;5070815;28;19963;-77
2021/06/18 14:53:02;;;;;;;;;;;;;;;;;;5071242;28;19916;-78
2021/06/18 14:55:27;;;;;;;;;;;;;;;;;;5054345;28;19990;-78
2021/06/18 14:57:53;;;;;;;;;;;;;;;;;;5070734;28;20366;-77
2021/06/18 15:00:19;;;;;;;;;;;;;;;;;;5071466;28;19920;-78
2021/06/18 15:02:44;;;;;;;;;;;;;;;;;;5070016;28;19924;-78
2021/06/18 15:05:11;;;;;;;;;;;;;;;;;;5071865;28;19920;-77
2021/06/18 15:07:37;;;;;;;;;;;;;;;;;;5070484;28;20018;-77
2021/06/18 15:10:02;;;;;;;;;;;;;;;;;;5069422;28;20002;-77
2021/06/18 15:12:27;;;;;;;;;;;;;;;;;;5052498;28;19925;-77
2021/06/18 15:14:53;;;;;;;;;;;;;;;;;;5069850;28;19913;-77
2021/06/18 15:17:18;;;;;;;;;;;;;;;;;;5068943;28;19920;-77
2021/06/18 15:19:43;;;;;;;;;;;;;;;;;;5068919;28;19916;-77
2021/06/18 15:22:09;;;;;;;;;;;;;;;;;;5051883;28;21287;-77
2021/06/18 15:24:34;;;;;;;;;;;;;;;;;;5068638;28;19921;-76
2021/06/18 15:27:00;;;;;;;;;;;;;;;;;;5068550;28;19935;-75
2021/06/18 15:29:25;;;;;;;;;;;;;;;;;;5068661;28;20731;-75
2021/06/18 15:31:52;;;;;;;;;;;;;;;;;;5068920;28;20436;-75
2021/06/18 15:34:17;;;;;;;;;;;;;;;;;;5051980;28;20376;-75
2021/06/18 15:36:42;;;;;;;;;;;;;;;;;;5069669;28;19920;-75
2021/06/18 15:39:08;;;;;;;;;;;;;;;;;;5051688;28;19916;-75
2021/06/18 15:41:33;;;;;;;;;;;;;;;;;;5068470;28;20452;-75
2021/06/18 15:43:59;;;;;;;;;;;;;;;;;;5070126;28;19967;-75
2021/06/18 15:46:24;;;;;;;;;;;;;;;;;;5070061;28;20367;-75
2021/06/18 15:48:49;;;;;;;;;;;;;;;;;;5069480;28;20044;-75
2021/06/18 15:54:46;;;;;;;;;;;;;;;;;;5033637;28;19929;-90
2021/06/18 16:01:02;;;;;;;;;;;;;;;;;;5033618;28;19963;-90
2021/06/18 16:04:19;;;;;;;;;;;;;;;;;;4972963;28;19918;-89
2021/06/18 16:13:14;;;;;;;;;;;;;;;;;;4954134;28;19958;-90
2021/06/18 16:56:20;;;;;;;;;;;;;;;;;;4997431;28;20011;-89
2021/06/18 17:02:25;;;;;;;;;;;;;;;;;;4936889;29;19929;-89
2021/06/18 17:05:34;;;;;;;;;;;;;;;;;;4898917;29;20003;-89
2021/06/18 17:07:59;;;;;;;;;;;;;;;;;;5016426;28;19924;-88
2021/06/18 17:10:32;;;;;;;;;;;;;;;;;;5018242;28;19913;-88
2021/06/18 17:13:18;;;;;;;;;;;;;;;;;;5018350;28;19921;-89
2021/06/18 17:15:43;;;;;;;;;;;;;;;;;;5034564;28;19914;-88
2021/06/18 17:18:08;;;;;;;;;;;;;;;;;;5018167;28;19936;-89
2021/06/18 17:20:34;;;;;;;;;;;;;;;;;;5018115;28;19923;-89
2021/06/18 17:22:59;;;;;;;;;;;;;;;;;;5034456;28;19913;-89
2021/06/18 17:25:24;;;;;;;;;;;;;;;;;;5017032;28;20299;-89
2021/06/18 17:27:49;;;;;;;;;;;;;;;;;;5018148;28;19913;-89
2021/06/18 17:30:14;;;;;;;;;;;;;;;;;;5017744;28;20529;-89
2021/06/18 17:32:40;;;;;;;;;;;;;;;;;;5017626;28;19913;-89
2021/06/18 17:35:05;;;;;;;;;;;;;;;;;;5017823;28;19917;-89
2021/06/18 17:37:30;;;;;;;;;;;;;;;;;;5017506;28;19921;-89
2021/06/18 17:39:55;;;;;;;;;;;;;;;;;;5017595;28;19921;-89
2021/06/18 17:42:21;;;;;;;;;;;;;;;;;;5017516;28;19913;-89
2021/06/18 17:44:47;;;;;;;;;;;;;;;;;;5017293;28;19913;-89